Time;durP1;ratioP1;P1;durP2;ratioP2;P2;SDS_P1;SDS_P2;PMS_P1;PMS_P2;Temp;Humidity;BMP_temperature;BMP_pressure;BME280_temperature;BME280_humidity;BME280_pressure;Samples;Min_cycle;Max_cycle;Signal;HPM_P1;HPM_P2
2023/09/01 00:00:46;;;;;;;2.40;1.85;;;18.40;81.20;;;;;;5052510;28;20496;-66
2023/09/01 00:03:12;;;;;;;3.00;1.77;;;18.40;81.50;;;;;;5052404;28;20033;-65
2023/09/01 00:05:38;;;;;;;2.45;1.60;;;18.40;81.90;;;;;;5052144;28;20025;-65
2023/09/01 00:08:05;;;;;;;3.45;1.75;;;18.40;82.00;;;;;;5051982;28;20056;-66
2023/09/01 00:10:31;;;;;;;4.40;2.10;;;18.40;82.10;;;;;;5052091;28;20044;-65
2023/09/01 00:12:57;;;;;;;2.80;1.73;;;18.40;82.40;;;;;;5051943;28;20025;-65
2023/09/01 00:15:23;;;;;;;2.50;1.50;;;18.40;82.40;;;;;;5052459;28;20052;-66
2023/09/01 00:17:49;;;;;;;7.55;2.00;;;18.40;82.40;;;;;;5051947;28;20454;-67
2023/09/01 00:20:15;;;;;;;5.05;1.85;;;18.40;82.20;;;;;;5052321;28;20108;-66
2023/09/01 00:22:40;;;;;;;4.55;2.03;;;18.40;82.50;;;;;;5052294;28;20028;-66
2023/09/01 00:25:06;;;;;;;2.40;1.60;;;18.40;83.00;;;;;;5051871;28;20036;-66
2023/09/01 00:27:32;;;;;;;2.40;1.70;;;18.40;82.60;;;;;;5052584;28;20025;-66
2023/09/01 00:29:57;;;;;;;4.00;1.73;;;18.40;82.40;;;;;;5051885;28;20480;-67
2023/09/01 00:32:23;;;;;;;5.43;2.40;;;18.40;82.40;;;;;;5052400;28;20051;-67
2023/09/01 00:34:56;;;;;;;4.18;2.05;;;18.40;82.50;;;;;;5052313;28;20025;-71
2023/09/01 00:37:21;;;;;;;4.25;1.70;;;18.40;82.60;;;;;;5055229;28;20025;-67
2023/09/01 00:39:47;;;;;;;3.40;1.65;;;18.40;82.70;;;;;;5042569;28;20102;-66
2023/09/01 00:42:12;;;;;;;4.72;1.70;;;18.40;82.50;;;;;;5055436;28;20032;-66
2023/09/01 00:44:38;;;;;;;3.63;2.08;;;18.30;82.60;;;;;;5055895;28;20032;-66
2023/09/01 00:47:04;;;;;;;3.20;1.80;;;18.30;82.70;;;;;;5055363;28;20029;-66
2023/09/01 00:49:30;;;;;;;2.85;1.80;;;18.30;82.80;;;;;;5055943;28;20040;-66
2023/09/01 00:51:57;;;;;;;3.08;1.90;;;18.30;82.90;;;;;;5055076;28;20485;-67
2023/09/01 00:54:23;;;;;;;2.42;1.98;;;18.30;82.70;;;;;;5055624;28;20079;-66
2023/09/01 00:56:50;;;;;;;4.35;2.03;;;18.30;82.80;;;;;;5055254;28;20045;-66
2023/09/01 00:59:16;;;;;;;5.72;1.70;;;18.30;83.00;;;;;;5051834;28;20036;-67
2023/09/01 01:01:42;;;;;;;4.15;1.80;;;18.30;82.70;;;;;;5055646;28;20033;-66
2023/09/01 01:04:08;;;;;;;7.30;1.95;;;18.30;82.60;;;;;;5055000;28;20078;-66
2023/09/01 01:07:06;;;;;;;5.00;1.83;;;18.30;82.30;;;;;;5054969;28;20029;-66
2023/09/01 01:09:44;;;;;;;2.63;1.80;;;18.30;82.30;;;;;;5013264;28;20393;-66
2023/09/01 01:12:26;;;;;;;2.03;1.58;;;18.20;82.40;;;;;;5055065;28;20462;-66
2023/09/01 01:14:53;;;;;;;2.50;1.60;;;18.30;82.50;;;;;;5055307;28;20028;-67
2023/09/01 01:17:19;;;;;;;2.70;1.80;;;18.30;82.40;;;;;;5043501;28;20036;-66
2023/09/01 01:19:53;;;;;;;2.95;2.08;;;18.30;82.50;;;;;;5035257;28;20386;-67
2023/09/01 01:22:38;;;;;;;3.05;1.80;;;18.30;82.60;;;;;;5035200;28;20037;-66
2023/09/01 01:25:09;;;;;;;4.18;2.03;;;18.30;82.60;;;;;;5034774;28;20025;-66
2023/09/01 01:27:35;;;;;;;2.65;1.95;;;18.40;82.50;;;;;;5035187;28;20021;-66
2023/09/01 01:30:00;;;;;;;3.63;1.75;;;18.40;82.30;;;;;;5034688;28;20033;-66
2023/09/01 01:32:27;;;;;;;3.95;1.88;;;18.40;82.50;;;;;;5034893;28;20029;-66
2023/09/01 01:35:09;;;;;;;3.28;1.85;;;18.40;82.20;;;;;;5034742;28;20029;-66
2023/09/01 01:38:13;;;;;;;4.03;2.00;;;18.40;82.10;;;;;;5035069;28;20036;-66
2023/09/01 01:40:42;;;;;;;3.95;2.00;;;18.40;81.80;;;;;;5030246;28;20044;-66
2023/09/01 01:43:11;;;;;;;4.32;1.85;;;18.40;81.70;;;;;;5034418;28;20041;-66
2023/09/01 01:45:41;;;;;;;3.10;1.70;;;18.40;80.50;;;;;;5034594;28;20060;-66
2023/09/01 01:48:07;;;;;;;4.10;1.63;;;18.40;80.50;;;;;;5032814;28;20084;-66
2023/09/01 01:50:32;;;;;;;3.53;2.08;;;18.40;80.70;;;;;;5034611;28;20052;-66
2023/09/01 01:52:59;;;;;;;3.65;1.90;;;18.40;80.90;;;;;;5034162;28;20454;-67
2023/09/01 01:55:24;;;;;;;6.38;1.83;;;18.40;81.00;;;;;;5034589;28;20041;-67
2023/09/01 01:57:50;;;;;;;7.25;1.83;;;18.50;81.40;;;;;;5034544;28;20539;-66
2023/09/01 02:00:16;;;;;;;4.13;2.03;;;18.50;81.70;;;;;;5016305;28;20290;-66
2023/09/01 02:02:42;;;;;;;2.38;1.65;;;18.50;82.00;;;;;;5034403;28;20029;-66
2023/09/01 02:05:08;;;;;;;4.72;2.05;;;18.50;82.20;;;;;;5034032;28;20032;-66
2023/09/01 02:07:34;;;;;;;4.75;2.30;;;18.50;82.30;;;;;;5034298;28;20589;-66
2023/09/01 02:10:00;;;;;;;4.35;2.10;;;18.50;82.20;;;;;;5033897;28;20236;-67
2023/09/01 02:12:26;;;;;;;4.00;2.13;;;18.50;81.80;;;;;;5034296;28;20041;-66
2023/09/01 02:14:52;;;;;;;4.65;2.00;;;18.50;81.70;;;;;;5033899;28;20030;-66
2023/09/01 02:17:17;;;;;;;3.95;1.95;;;18.50;81.30;;;;;;5033890;28;20111;-66
2023/09/01 02:19:43;;;;;;;3.13;2.10;;;18.50;81.00;;;;;;5034058;28;20128;-66
2023/09/01 02:22:08;;;;;;;2.05;1.50;;;18.50;80.90;;;;;;5033387;28;20493;-66
2023/09/01 02:24:34;;;;;;;3.78;1.60;;;18.50;81.00;;;;;;5033608;28;20068;-66
2023/09/01 02:27:00;;;;;;;4.85;1.90;;;18.50;80.90;;;;;;5033585;28;20501;-67
2023/09/01 02:29:26;;;;;;;4.50;1.90;;;18.50;81.00;;;;;;5033995;28;20037;-66
2023/09/01 02:31:53;;;;;;;3.75;1.65;;;18.50;80.70;;;;;;5033714;28;20038;-67
2023/09/01 02:34:19;;;;;;;3.42;1.85;;;18.40;80.90;;;;;;5033358;28;20326;-65
2023/09/01 02:36:45;;;;;;;2.53;1.70;;;18.40;81.00;;;;;;5033683;28;20430;-65
2023/09/01 02:39:11;;;;;;;3.45;1.77;;;18.40;81.00;;;;;;5042391;28;20036;-65
2023/09/01 02:41:37;;;;;;;3.33;2.05;;;18.40;81.30;;;;;;5053497;28;20090;-65
2023/09/01 02:44:03;;;;;;;4.03;1.60;;;18.40;81.60;;;;;;5053165;28;20029;-66
2023/09/01 02:46:29;;;;;;;2.85;1.70;;;18.40;81.80;;;;;;5053559;28;20025;-67
2023/09/01 02:48:55;;;;;;;4.13;1.77;;;18.40;81.90;;;;;;5053232;28;20089;-66
2023/09/01 02:51:20;;;;;;;4.45;1.85;;;18.40;82.20;;;;;;5053064;28;20040;-66
2023/09/01 02:53:46;;;;;;;3.47;1.83;;;18.40;82.50;;;;;;5053404;28;20037;-66
2023/09/01 02:56:12;;;;;;;2.00;1.48;;;18.30;82.30;;;;;;5040213;28;20053;-67
2023/09/01 02:58:38;;;;;;;3.30;2.15;;;18.30;82.90;;;;;;5032811;28;20378;-66
2023/09/01 03:01:10;;;;;;;7.03;1.77;;;18.30;82.50;;;;;;5032770;28;20473;-67
2023/09/01 03:03:38;;;;;;;4.00;2.00;;;18.30;82.40;;;;;;5033325;28;20350;-66
2023/09/01 03:06:05;;;;;;;2.13;1.40;;;18.30;82.40;;;;;;5032679;28;20424;-67
2023/09/01 03:08:31;;;;;;;8.40;2.20;;;18.30;82.50;;;;;;5033504;28;20033;-66
2023/09/01 03:10:57;;;;;;;2.28;1.67;;;18.30;82.70;;;;;;5033015;28;20032;-66
2023/09/01 03:13:22;;;;;;;2.83;2.00;;;18.40;82.90;;;;;;5033075;28;20029;-66
2023/09/01 03:15:48;;;;;;;3.50;1.90;;;18.30;83.00;;;;;;5033095;28;20030;-66
2023/09/01 03:18:14;;;;;;;6.57;2.08;;;18.30;83.00;;;;;;5032687;28;20079;-66
2023/09/01 03:20:40;;;;;;;2.60;1.90;;;18.40;82.90;;;;;;5033083;28;20427;-66
2023/09/01 03:23:05;;;;;;;2.60;1.88;;;18.40;82.60;;;;;;5032580;28;20026;-67
2023/09/01 03:25:31;;;;;;;3.17;1.90;;;18.40;82.30;;;;;;5032977;28;20026;-66
2023/09/01 03:27:57;;;;;;;3.25;1.92;;;18.40;81.90;;;;;;5032727;28;20463;-66
2023/09/01 03:30:22;;;;;;;5.07;2.03;;;18.40;81.40;;;;;;5032198;28;20800;-66
2023/09/01 03:32:48;;;;;;;3.40;2.03;;;18.40;81.40;;;;;;5032726;28;20036;-67
2023/09/01 03:35:14;;;;;;;3.88;2.22;;;18.40;81.40;;;;;;5051425;28;20462;-66
2023/09/01 03:37:40;;;;;;;2.50;1.95;;;18.40;81.00;;;;;;5052730;28;20056;-66
2023/09/01 03:40:09;;;;;;;4.88;2.33;;;18.40;80.30;;;;;;5052129;28;20377;-66
2023/09/01 03:42:37;;;;;;;6.30;1.90;;;18.40;80.20;;;;;;5052650;28;20036;-66
2023/09/01 03:45:03;;;;;;;3.58;2.08;;;18.40;80.00;;;;;;5052588;28;20096;-66
2023/09/01 03:47:29;;;;;;;4.20;1.90;;;18.40;80.40;;;;;;5052160;28;20056;-66
2023/09/01 03:49:55;;;;;;;4.93;2.20;;;18.40;80.70;;;;;;5052662;28;20462;-66
2023/09/01 03:52:20;;;;;;;5.93;2.10;;;18.40;80.30;;;;;;5052223;28;20378;-66
2023/09/01 03:54:46;;;;;;;5.40;1.90;;;18.40;80.00;;;;;;5052248;28;20028;-66
2023/09/01 03:57:12;;;;;;;5.05;2.17;;;18.40;79.70;;;;;;5052225;28;20021;-66
2023/09/01 03:59:37;;;;;;;5.80;2.10;;;18.40;80.20;;;;;;5052442;28;20036;-65
2023/09/01 04:02:04;;;;;;;4.53;2.22;;;18.40;80.90;;;;;;5052501;28;20105;-66
2023/09/01 04:04:30;;;;;;;5.40;2.10;;;18.40;81.20;;;;;;5052092;28;20025;-66
2023/09/01 04:06:55;;;;;;;2.72;2.10;;;18.40;80.00;;;;;;5052510;28;20497;-66
2023/09/01 04:09:21;;;;;;;3.42;2.15;;;18.40;80.60;;;;;;5052023;28;20033;-67
2023/09/01 04:11:46;;;;;;;3.22;2.30;;;18.40;82.30;;;;;;5054847;28;20319;-66
2023/09/01 04:14:12;;;;;;;3.50;2.97;;;18.40;83.80;;;;;;5056098;28;20055;-67
2023/09/01 04:16:39;;;;;;;2.83;2.08;;;18.40;84.80;;;;;;5056139;28;20025;-66
2023/09/01 04:19:04;;;;;;;4.28;2.38;;;18.40;85.10;;;;;;5056317;28;20028;-66
2023/09/01 04:21:30;;;;;;;2.90;1.92;;;18.40;85.60;;;;;;5037981;28;20037;-66
2023/09/01 04:23:56;;;;;;;2.58;2.10;;;18.40;86.20;;;;;;5056257;28;20048;-66
2023/09/01 04:26:21;;;;;;;4.80;2.38;;;18.30;86.50;;;;;;5055891;28;20025;-68
2023/09/01 04:28:47;;;;;;;3.22;1.90;;;18.30;86.90;;;;;;5047597;28;20032;-65
2023/09/01 04:31:28;;;;;;;2.85;2.10;;;18.30;87.20;;;;;;5038667;28;20021;-66
2023/09/01 04:33:54;;;;;;;4.72;2.20;;;18.20;87.70;;;;;;5054112;28;20486;-66
2023/09/01 04:36:20;;;;;;;6.60;2.10;;;18.20;88.20;;;;;;5054394;28;20044;-65
2023/09/01 04:38:46;;;;;;;4.50;2.55;;;18.20;88.70;;;;;;5055988;28;20017;-66
2023/09/01 04:41:11;;;;;;;3.10;2.10;;;18.20;88.70;;;;;;5055406;28;20492;-66
2023/09/01 04:43:38;;;;;;;2.72;2.17;;;18.20;88.90;;;;;;5055930;28;20028;-66
2023/09/01 04:46:04;;;;;;;2.80;2.17;;;18.20;89.30;;;;;;5055375;28;20462;-66
2023/09/01 04:48:30;;;;;;;7.47;2.50;;;18.10;89.50;;;;;;5051515;28;20508;-66
2023/09/01 04:50:56;;;;;;;3.60;2.42;;;18.10;90.00;;;;;;5055797;28;20120;-66
2023/09/01 04:53:22;;;;;;;5.90;3.20;;;18.10;89.70;;;;;;5055143;28;20024;-66
2023/09/01 04:55:48;;;;;;;3.97;2.53;;;18.10;90.00;;;;;;5055383;28;20135;-66
2023/09/01 04:58:14;;;;;;;5.82;2.47;;;18.10;90.00;;;;;;5055271;28;20036;-66
2023/09/01 05:00:41;;;;;;;8.15;2.92;;;18.10;89.90;;;;;;5055654;28;20033;-66
2023/09/01 05:03:07;;;;;;;7.07;2.92;;;18.10;90.00;;;;;;5055533;28;20029;-66
2023/09/01 05:05:32;;;;;;;6.65;2.90;;;18.10;90.00;;;;;;5055349;28;20033;-65
2023/09/01 05:07:58;;;;;;;6.43;2.50;;;18.10;90.10;;;;;;5055174;28;20472;-66
2023/09/01 05:10:23;;;;;;;4.88;3.15;;;18.10;90.10;;;;;;5055006;28;20492;-66
2023/09/01 05:12:49;;;;;;;9.07;3.03;;;18.10;90.10;;;;;;5055176;28;20033;-66
2023/09/01 05:15:15;;;;;;;6.30;3.78;;;18.10;90.10;;;;;;5054610;28;20064;-66
2023/09/01 05:17:41;;;;;;;5.80;3.20;;;18.10;90.00;;;;;;5055443;28;20032;-66
2023/09/01 05:20:07;;;;;;;6.90;4.07;;;18.10;90.10;;;;;;5054851;28;20037;-66
2023/09/01 05:22:34;;;;;;;4.85;3.00;;;18.10;90.00;;;;;;5054028;28;20375;-66
2023/09/01 05:25:00;;;;;;;8.40;2.50;;;18.10;89.70;;;;;;5054788;28;20092;-65
2023/09/01 05:27:25;;;;;;;3.75;2.58;;;18.10;89.30;;;;;;5054799;28;20029;-66
2023/09/01 05:29:51;;;;;;;4.88;2.53;;;18.20;89.20;;;;;;5043396;28;20477;-66
2023/09/01 05:32:17;;;;;;;5.85;2.60;;;18.20;89.30;;;;;;5034583;28;20029;-66
2023/09/01 05:34:43;;;;;;;4.45;2.50;;;18.20;89.40;;;;;;5035152;28;20029;-65
2023/09/01 05:37:11;;;;;;;3.13;2.55;;;18.20;89.10;;;;;;5035268;28;20030;-65
2023/09/01 05:39:38;;;;;;;3.53;2.35;;;18.20;88.70;;;;;;5034367;28;20084;-66
2023/09/01 05:42:04;;;;;;;3.55;2.42;;;18.20;88.20;;;;;;5035126;28;20064;-66
2023/09/01 05:44:30;;;;;;;5.85;2.40;;;18.20;87.80;;;;;;5034389;28;20061;-66
2023/09/01 05:46:56;;;;;;;3.95;2.42;;;18.20;87.90;;;;;;5034714;28;20041;-66
2023/09/01 05:49:23;;;;;;;3.92;2.60;;;18.20;87.60;;;;;;5034271;28;20030;-66
2023/09/01 05:51:49;;;;;;;6.38;2.35;;;18.20;87.60;;;;;;5034626;28;20040;-66
2023/09/01 05:54:16;;;;;;;4.35;2.53;;;18.20;87.30;;;;;;5034668;28;20018;-66
2023/09/01 05:56:41;;;;;;;6.47;2.58;;;18.30;87.60;;;;;;5034823;28;20056;-66
2023/09/01 05:59:07;;;;;;;4.78;2.95;;;18.30;87.30;;;;;;5034535;28;20025;-66
2023/09/01 06:01:35;;;;;;;3.45;2.15;;;18.30;87.50;;;;;;5034360;28;20036;-66
2023/09/01 06:04:03;;;;;;;5.78;2.45;;;18.30;87.90;;;;;;5034357;28;20162;-66
2023/09/01 06:06:33;;;;;;;4.53;2.58;;;18.30;88.10;;;;;;5033647;28;20386;-66
2023/09/01 06:08:59;;;;;;;3.63;2.65;;;18.30;88.60;;;;;;5034317;28;20025;-66
2023/09/01 06:11:25;;;;;;;3.00;2.40;;;18.30;88.80;;;;;;5033782;28;20033;-66
2023/09/01 06:13:51;;;;;;;4.90;2.03;;;18.30;89.30;;;;;;5033860;28;20109;-66
2023/09/01 06:16:17;;;;;;;5.20;2.40;;;18.30;89.40;;;;;;5034119;28;20036;-66
2023/09/01 06:18:43;;;;;;;4.97;2.40;;;18.40;89.90;;;;;;5033775;28;20029;-66
2023/09/01 06:21:15;;;;;;;3.75;2.40;;;18.40;89.90;;;;;;5034145;28;20036;-66
2023/09/01 06:23:44;;;;;;;4.43;2.70;;;18.40;89.50;;;;;;5033586;28;20038;-66
2023/09/01 06:26:13;;;;;;;5.43;2.53;;;18.40;89.30;;;;;;5036329;28;20108;-66
2023/09/01 06:28:40;;;;;;;3.65;2.42;;;18.40;89.80;;;;;;5033460;28;20032;-64
2023/09/01 06:31:06;;;;;;;3.60;2.15;;;18.40;89.50;;;;;;5036894;28;20076;-64
2023/09/01 06:33:32;;;;;;;3.63;2.05;;;18.50;88.30;;;;;;5052276;28;20056;-64
2023/09/01 06:35:57;;;;;;;3.63;2.08;;;18.50;87.60;;;;;;5053402;28;20466;-65
2023/09/01 06:38:23;;;;;;;8.48;2.40;;;18.50;86.70;;;;;;5053194;28;20075;-65
2023/09/01 06:40:49;;;;;;;7.47;2.35;;;18.50;86.90;;;;;;5053433;28;20070;-65
2023/09/01 06:43:14;;;;;;;6.10;2.53;;;18.60;87.20;;;;;;5053452;28;20041;-65
2023/09/01 06:45:40;;;;;;;7.25;2.10;;;18.60;87.40;;;;;;5052793;28;20265;-65
2023/09/01 06:48:06;;;;;;;3.90;2.38;;;18.70;87.60;;;;;;5048366;28;20071;-66
2023/09/01 06:50:32;;;;;;;4.72;2.30;;;18.80;87.00;;;;;;5053247;28;20025;-64
2023/09/01 06:52:58;;;;;;;3.83;2.20;;;18.80;86.00;;;;;;5053224;28;20033;-65
2023/09/01 06:55:24;;;;;;;5.53;2.25;;;18.90;85.70;;;;;;5052847;28;20045;-65
2023/09/01 06:57:49;;;;;;;9.27;2.63;;;18.90;85.40;;;;;;5053568;28;20079;-65
2023/09/01 07:00:16;;;;;;;3.63;2.00;;;19.10;84.70;;;;;;5035412;28;20112;-65
2023/09/01 07:02:41;;;;;;;4.97;2.05;;;19.10;83.50;;;;;;5052744;28;20040;-65
2023/09/01 07:05:07;;;;;;;4.15;2.13;;;19.20;83.00;;;;;;5053038;28;20369;-64
2023/09/01 07:07:32;;;;;;;2.85;2.03;;;19.20;82.70;;;;;;5049187;28;20025;-65
2023/09/01 07:09:58;;;;;;;3.25;1.95;;;19.30;82.40;;;;;;5050174;28;20040;-65
2023/09/01 07:12:24;;;;;;;2.95;1.73;;;19.30;81.70;;;;;;5034677;28;20412;-66
2023/09/01 07:14:49;;;;;;;5.72;2.20;;;19.30;81.90;;;;;;5052813;28;20057;-65
2023/09/01 07:17:20;;;;;;;3.50;2.30;;;19.30;82.20;;;;;;5053065;28;20031;-65
2023/09/01 07:19:46;;;;;;;3.58;2.13;;;19.40;82.00;;;;;;5052468;28;20040;-65
2023/09/01 07:22:11;;;;;;;2.95;1.90;;;19.40;81.70;;;;;;5045914;28;20074;-66
2023/09/01 07:24:37;;;;;;;3.03;1.83;;;19.40;81.40;;;;;;5050865;28;20040;-65
2023/09/01 07:27:05;;;;;;;5.53;2.00;;;19.40;80.90;;;;;;5052894;28;20056;-66
2023/09/01 07:29:31;;;;;;;2.67;2.00;;;19.40;81.20;;;;;;5050609;28;20029;-66
2023/09/01 07:31:56;;;;;;;3.60;2.15;;;19.40;81.20;;;;;;5043271;28;20531;-66
2023/09/01 07:34:22;;;;;;;2.67;1.77;;;19.40;81.50;;;;;;5032548;28;20034;-67
2023/09/01 07:36:47;;;;;;;7.82;2.35;;;19.40;82.20;;;;;;5032266;28;20021;-66
2023/09/01 07:39:13;;;;;;;5.90;2.33;;;19.50;82.30;;;;;;5032207;28;20037;-67
2023/09/01 07:41:39;;;;;;;2.92;1.85;;;19.50;82.80;;;;;;5031818;28;20389;-67
2023/09/01 07:44:04;;;;;;;4.95;2.05;;;19.60;82.60;;;;;;5031843;28;20064;-67
2023/09/01 07:46:33;;;;;;;17.13;3.70;;;19.60;82.40;;;;;;5031961;28;20030;-67
2023/09/01 07:48:59;;;;;;;17.55;4.97;;;19.70;82.80;;;;;;5032232;28;20481;-67
2023/09/01 07:51:25;;;;;;;2.80;2.00;;;19.90;82.60;;;;;;5032168;28;20021;-67
2023/09/01 07:53:50;;;;;;;5.95;2.30;;;19.90;81.40;;;;;;5032064;28;20381;-67
2023/09/01 07:56:16;;;;;;;3.72;2.15;;;19.90;81.10;;;;;;5031907;28;20049;-67
2023/09/01 07:58:42;;;;;;;3.95;1.73;;;19.90;80.50;;;;;;5031728;28;20041;-67
2023/09/01 08:01:07;;;;;;;4.03;2.13;;;19.90;80.00;;;;;;5032734;28;20040;-67
2023/09/01 08:03:33;;;;;;;5.75;1.85;;;19.90;80.50;;;;;;5032373;28;20100;-67
2023/09/01 08:05:59;;;;;;;6.50;2.72;;;19.90;80.30;;;;;;5036605;28;20040;-66
2023/09/01 08:08:25;;;;;;;3.97;1.90;;;20.00;81.00;;;;;;5048094;28;20032;-71
2023/09/01 08:10:52;;;;;;;5.22;2.33;;;20.00;80.50;;;;;;5033231;28;20038;-66
2023/09/01 08:13:17;;;;;;;4.75;1.83;;;20.00;80.10;;;;;;5032006;28;20033;-67
2023/09/01 08:15:43;;;;;;;5.45;2.22;;;20.10;79.90;;;;;;5031766;28;20125;-66
2023/09/01 08:18:09;;;;;;;10.98;2.47;;;20.10;80.10;;;;;;5031725;28;20359;-67
2023/09/01 08:20:34;;;;;;;5.25;2.80;;;20.20;80.40;;;;;;5031340;28;20048;-67
2023/09/01 08:23:00;;;;;;;5.95;1.83;;;20.40;80.70;;;;;;5032075;28;20037;-67
2023/09/01 08:25:25;;;;;;;5.47;2.08;;;20.60;80.00;;;;;;5031934;28;20117;-67
2023/09/01 08:27:51;;;;;;;2.95;1.90;;;20.80;79.30;;;;;;5031290;28;20025;-66
2023/09/01 08:30:16;;;;;;;1.77;1.50;;;21.00;78.20;;;;;;5014558;28;20485;-67
2023/09/01 08:32:42;;;;;;;4.53;2.00;;;21.10;76.50;;;;;;5031548;28;20026;-66
2023/09/01 08:35:09;;;;;;;2.97;2.05;;;21.20;76.00;;;;;;5032012;28;20028;-67
2023/09/01 08:37:34;;;;;;;3.35;1.90;;;21.20;75.40;;;;;;5031819;28;20100;-66
2023/09/01 08:40:00;;;;;;;2.85;1.80;;;21.20;74.50;;;;;;5031858;28;20175;-66
2023/09/01 08:42:26;;;;;;;9.65;2.20;;;21.20;72.80;;;;;;5032475;28;20032;-66
2023/09/01 08:44:53;;;;;;;2.83;2.00;;;21.20;73.10;;;;;;5031590;28;20112;-65
2023/09/01 08:47:23;;;;;;;4.05;1.90;;;21.10;73.20;;;;;;5032062;28;20462;-65
2023/09/01 08:49:49;;;;;;;5.93;1.98;;;21.10;73.40;;;;;;5031745;28;20034;-66
2023/09/01 08:52:17;;;;;;;8.68;2.05;;;21.10;73.20;;;;;;5031906;28;20026;-66
2023/09/01 08:54:44;;;;;;;3.33;2.10;;;21.10;73.20;;;;;;5031340;28;20022;-67
2023/09/01 08:57:09;;;;;;;4.82;2.10;;;21.10;73.50;;;;;;5015508;28;20447;-66
2023/09/01 08:59:37;;;;;;;4.00;2.15;;;21.10;72.50;;;;;;5035009;28;20026;-66
2023/09/01 09:02:05;;;;;;;2.55;1.70;;;21.10;70.00;;;;;;5035357;28;20025;-66
2023/09/01 09:04:31;;;;;;;3.33;1.83;;;21.10;69.30;;;;;;5034867;28;20044;-67
2023/09/01 09:07:17;;;;;;;2.88;1.80;;;21.20;69.90;;;;;;5035005;28;20025;-65
2023/09/01 09:09:55;;;;;;;4.35;1.80;;;21.20;70.10;;;;;;5034865;28;20025;-66
2023/09/01 09:12:34;;;;;;;2.03;1.63;;;21.40;70.30;;;;;;5035201;28;20036;-66
2023/09/01 09:15:00;;;;;;;2.10;1.40;;;21.70;70.50;;;;;;5035210;28;20036;-66
2023/09/01 09:17:46;;;;;;;3.33;1.50;;;21.90;67.00;;;;;;5017147;28;20034;-66
2023/09/01 09:20:14;;;;;;;4.22;1.52;;;22.10;67.10;;;;;;5034681;28;20060;-66
2023/09/01 09:22:53;;;;;;;1.90;1.35;;;22.10;65.70;;;;;;5034531;28;20026;-66
2023/09/01 09:25:25;;;;;;;5.47;2.03;;;22.10;65.10;;;;;;5035047;28;20413;-66
2023/09/01 09:27:51;;;;;;;2.83;1.90;;;22.10;65.10;;;;;;5034780;28;20034;-66
2023/09/01 09:30:16;;;;;;;2.03;1.73;;;22.10;65.10;;;;;;5034606;28;20043;-66
2023/09/01 09:32:42;;;;;;;3.58;1.98;;;22.10;65.00;;;;;;5034325;28;20109;-66
2023/09/01 09:35:13;;;;;;;4.30;1.98;;;22.00;65.20;;;;;;5034379;28;20373;-65
2023/09/01 09:37:42;;;;;;;6.15;1.85;;;22.00;65.60;;;;;;5034316;28;20072;-67
2023/09/01 09:40:17;;;;;;;4.10;1.83;;;22.00;66.20;;;;;;5034486;28;20060;-66
2023/09/01 09:42:46;;;;;;;4.00;1.90;;;22.20;66.50;;;;;;5034198;28;20031;-65
2023/09/01 09:45:21;;;;;;;3.88;1.58;;;22.40;67.20;;;;;;5034654;28;20033;-66
2023/09/01 09:47:49;;;;;;;4.43;1.92;;;22.60;65.70;;;;;;5034076;28;20025;-65
2023/09/01 09:50:17;;;;;;;4.75;1.60;;;22.80;65.00;;;;;;5034558;28;20040;-66
2023/09/01 09:52:49;;;;;;;3.78;1.60;;;22.90;64.80;;;;;;5034221;28;20030;-66
2023/09/01 09:55:25;;;;;;;4.20;1.67;;;23.00;64.60;;;;;;5034571;28;20468;-66
2023/09/01 09:57:54;;;;;;;3.25;1.85;;;23.20;64.60;;;;;;5034101;28;20099;-66
2023/09/01 10:00:21;;;;;;;4.25;1.75;;;23.20;63.90;;;;;;5035759;28;20029;-66
2023/09/01 10:02:55;;;;;;;3.00;2.00;;;23.40;63.60;;;;;;5036077;28;20025;-66
2023/09/01 10:05:22;;;;;;;3.08;1.63;;;23.40;63.70;;;;;;5042773;28;20035;-66
2023/09/01 10:07:49;;;;;;;4.82;1.90;;;23.50;64.40;;;;;;5053654;28;20059;-66
2023/09/01 10:10:15;;;;;;;5.28;1.52;;;23.60;63.00;;;;;;5053246;28;20037;-66
2023/09/01 10:12:40;;;;;;;3.97;1.70;;;23.70;62.60;;;;;;5053406;28;20035;-66
2023/09/01 10:15:10;;;;;;;4.60;1.70;;;23.80;63.00;;;;;;5054069;28;20025;-66
2023/09/01 10:17:37;;;;;;;4.15;2.05;;;23.80;62.60;;;;;;5053823;28;20032;-68
2023/09/01 10:20:07;;;;;;;2.20;1.55;;;23.90;61.90;;;;;;5036025;28;20033;-66
2023/09/01 10:22:38;;;;;;;4.80;1.80;;;23.90;61.80;;;;;;5053883;28;20114;-66
2023/09/01 10:25:10;;;;;;;;;;;23.90;62.60;;;;;;5054478;28;20351;-65
2023/09/01 10:27:36;;;;;;;3.83;1.85;;;24.00;62.90;;;;;;5053703;28;20304;-65
2023/09/01 10:30:23;;;;;;;2.55;1.50;;;24.00;63.10;;;;;;5053762;28;20032;-65
2023/09/01 10:32:48;;;;;;;3.53;1.20;;;24.10;62.80;;;;;;5035970;28;20499;-66
2023/09/01 10:35:47;;;;;;;3.03;1.63;;;24.20;62.40;;;;;;5053838;28;20025;-65
2023/09/01 10:38:17;;;;;;;5.75;1.38;;;24.30;61.70;;;;;;5053405;28;20035;-65
2023/09/01 10:40:53;;;;;;;2.55;1.45;;;24.30;62.20;;;;;;5052938;28;20033;-65
2023/09/01 10:43:34;;;;;;;3.45;1.45;;;24.20;61.90;;;;;;5053628;28;20500;-65
2023/09/01 10:46:12;;;;;;;3.72;1.23;;;24.30;62.70;;;;;;5052945;28;20021;-65
2023/09/01 10:48:53;;;;;;;2.67;1.42;;;24.20;61.90;;;;;;5053125;28;20496;-69
2023/09/01 10:51:29;;;;;;;2.40;1.50;;;24.00;62.70;;;;;;5053432;28;20029;-66
2023/09/01 10:53:56;;;;;;;3.28;1.48;;;24.00;62.80;;;;;;5052668;28;20037;-66
2023/09/01 10:56:24;;;;;;;5.07;1.30;;;23.80;63.40;;;;;;5053247;28;20496;-66
2023/09/01 10:58:51;;;;;;;3.20;1.50;;;23.70;63.40;;;;;;5052657;28;20033;-66
2023/09/01 11:01:37;;;;;;;4.03;1.70;;;23.70;64.20;;;;;;5053051;28;20039;-65
2023/09/01 11:04:20;;;;;;;3.13;1.58;;;23.70;64.50;;;;;;5052701;28;20523;-66
2023/09/01 11:07:13;;;;;;;2.53;1.65;;;23.60;64.80;;;;;;5052771;28;20029;-67
2023/09/01 11:09:44;;;;;;;2.15;1.55;;;23.70;65.30;;;;;;5048450;28;20515;-65
2023/09/01 11:12:11;;;;;;;2.50;1.05;;;23.70;65.50;;;;;;5052963;28;20108;-66
2023/09/01 11:14:39;;;;;;;2.15;1.17;;;23.80;65.10;;;;;;5053025;28;20029;-66
2023/09/01 11:17:05;;;;;;;2.50;1.30;;;23.80;65.40;;;;;;5052917;28;20108;-66
2023/09/01 11:19:34;;;;;;;2.25;1.13;;;23.80;65.40;;;;;;5052645;28;20115;-66
2023/09/01 11:21:59;;;;;;;2.50;1.45;;;23.80;65.10;;;;;;5052428;28;20120;-66
2023/09/01 11:24:26;;;;;;;2.67;1.30;;;23.80;65.40;;;;;;5052779;28;20028;-66
2023/09/01 11:26:52;;;;;;;2.05;1.23;;;23.80;65.40;;;;;;5052501;28;20100;-66
2023/09/01 11:29:20;;;;;;;3.28;1.30;;;23.80;65.90;;;;;;5052709;28;20033;-66
2023/09/01 11:31:46;;;;;;;1.77;1.20;;;23.90;65.90;;;;;;5052035;28;20104;-66
2023/09/01 11:34:13;;;;;;;1.73;1.23;;;23.90;65.40;;;;;;5052626;28;20104;-65
2023/09/01 11:36:46;;;;;;;3.85;1.25;;;24.00;65.20;;;;;;5052519;28;20024;-66
2023/09/01 11:39:12;;;;;;;2.22;1.10;;;24.10;65.30;;;;;;5052441;28;20438;-65
2023/09/01 11:41:38;;;;;;;1.70;1.13;;;24.10;65.60;;;;;;5052523;28;20108;-66
2023/09/01 11:44:04;;;;;;;3.13;1.00;;;24.10;65.30;;;;;;5052134;28;20048;-65
2023/09/01 11:46:33;;;;;;;2.28;1.38;;;24.20;65.60;;;;;;5052420;28;20051;-66
2023/09/01 11:49:00;;;;;;;2.13;1.13;;;24.30;64.80;;;;;;5052068;28;20025;-67
2023/09/01 11:51:33;;;;;;;3.75;1.50;;;24.40;64.60;;;;;;5052551;28;20029;-66
2023/09/01 11:53:59;;;;;;;1.92;1.30;;;24.40;64.50;;;;;;5040660;28;20036;-65
2023/09/01 11:56:25;;;;;;;2.05;1.20;;;24.40;64.80;;;;;;5032466;28;20053;-65
2023/09/01 11:58:56;;;;;;;2.65;1.20;;;24.40;64.80;;;;;;5031808;28;20061;-66
2023/09/01 12:01:23;;;;;;;2.38;1.20;;;24.40;64.60;;;;;;5032564;28;20084;-66
2023/09/01 12:03:51;;;;;;;1.70;1.30;;;24.40;65.10;;;;;;5035657;28;20100;-67
2023/09/01 12:06:18;;;;;;;1.60;1.00;;;24.50;65.50;;;;;;5052591;28;20021;-66
2023/09/01 12:08:48;;;;;;;1.88;0.90;;;24.50;65.10;;;;;;5030641;28;20445;-70
2023/09/01 12:11:15;;;;;;;3.47;1.20;;;24.50;65.00;;;;;;5052266;28;20036;-65
2023/09/01 12:13:43;;;;;;;2.17;1.38;;;24.50;64.90;;;;;;5052306;28;20112;-66
2023/09/01 12:16:18;;;;;;;2.58;1.40;;;24.60;64.90;;;;;;5051891;28;20139;-66
2023/09/01 12:18:44;;;;;;;1.90;1.13;;;24.60;65.40;;;;;;5052055;28;20040;-66
2023/09/01 12:21:10;;;;;;;4.95;1.40;;;24.70;65.20;;;;;;5051926;28;20048;-65
2023/09/01 12:23:38;;;;;;;2.53;1.20;;;24.70;65.80;;;;;;5052565;28;20029;-65
2023/09/01 12:26:04;;;;;;;3.47;1.13;;;24.80;65.80;;;;;;5051750;28;20021;-66
2023/09/01 12:28:33;;;;;;;2.72;0.93;;;24.90;64.60;;;;;;5052174;28;20048;-66
2023/09/01 12:31:00;;;;;;;1.58;1.10;;;24.90;63.70;;;;;;5052123;28;20033;-66
2023/09/01 12:33:26;;;;;;;3.08;1.70;;;24.80;63.30;;;;;;5055204;28;20113;-66
2023/09/01 12:35:52;;;;;;;1.58;1.17;;;24.80;63.60;;;;;;5055601;28;20032;-66
2023/09/01 12:38:18;;;;;;;2.33;1.33;;;24.70;63.40;;;;;;5056313;28;20377;-66
2023/09/01 12:40:44;;;;;;;1.50;1.20;;;24.80;63.80;;;;;;5056035;28;20087;-66
2023/09/01 12:43:10;;;;;;;3.55;1.55;;;24.80;62.80;;;;;;5056036;28;20029;-66
2023/09/01 12:45:36;;;;;;;2.42;1.30;;;24.70;62.80;;;;;;5056238;28;20021;-66
2023/09/01 12:48:03;;;;;;;4.05;1.60;;;24.70;62.70;;;;;;5055770;28;20036;-66
2023/09/01 12:50:30;;;;;;;2.58;1.73;;;24.70;62.10;;;;;;5055891;28;20025;-66